createdAt,value
2019-02-28T00:00:52.448Z,64.78
2019-02-28T00:03:20.648Z,64.65
2019-02-28T00:05:47.356Z,64.79
2019-02-28T00:08:14.027Z,64.65
2019-02-28T00:10:40.707Z,64.76
2019-02-28T00:13:07.295Z,65.00
2019-02-28T00:15:33.944Z,64.57
2019-02-28T00:18:00.531Z,64.85
2019-02-28T00:20:29.116Z,64.63
2019-02-28T00:22:55.860Z,64.62
2019-02-28T00:25:22.471Z,64.58
2019-02-28T00:27:49.265Z,63.97
2019-02-28T00:30:16.184Z,64.04
2019-02-28T00:32:42.793Z,63.79
2019-02-28T00:35:12.949Z,63.96
2019-02-28T00:37:38.213Z,63.65
2019-02-28T00:40:07.973Z,63.79
2019-02-28T00:42:34.682Z,64.10
2019-02-28T00:45:02.687Z,63.73
2019-02-28T00:47:30.195Z,63.95
2019-02-28T00:49:56.800Z,63.40
2019-02-28T00:52:23.448Z,63.62
2019-02-28T00:55:27.147Z,63.96
2019-02-28T00:57:55.389Z,63.75
2019-02-28T01:00:22.470Z,63.69
2019-02-28T01:02:53.547Z,63.12
2019-02-28T01:05:18.147Z,63.48
2019-02-28T01:07:48.057Z,63.43
2019-02-28T01:11:10.441Z,63.29
2019-02-28T01:13:38.683Z,63.23
2019-02-28T01:16:05.429Z,63.45
2019-02-28T01:18:34.475Z,62.85
2019-02-28T01:21:00.655Z,63.06
2019-02-28T01:23:29.391Z,63.04
2019-02-28T01:25:56.902Z,62.45
2019-02-28T01:28:27.050Z,62.56
2019-02-28T01:31:50.534Z,61.85
2019-02-28T01:34:17.155Z,61.83
2019-02-28T01:36:45.965Z,61.84
2019-02-28T01:39:12.339Z,61.62
2019-02-28T01:41:39.109Z,61.10
2019-02-28T01:44:05.732Z,61.00
2019-02-28T01:46:32.276Z,61.32
2019-02-28T01:48:58.847Z,60.97
2019-02-28T01:51:25.566Z,61.03
2019-02-28T01:53:53.645Z,60.83
2019-02-28T01:56:20.647Z,60.83
2019-02-28T01:58:47.573Z,60.56
2019-02-28T02:01:15.956Z,60.19
2019-02-28T02:03:42.665Z,60.55
2019-02-28T02:06:09.540Z,60.22
2019-02-28T02:09:32.453Z,60.48
2019-02-28T02:11:59.196Z,60.10
2019-02-28T02:14:25.736Z,59.90
2019-02-28T02:16:52.446Z,59.42
2019-02-28T02:19:19.115Z,59.06
2019-02-28T02:21:45.776Z,59.56
2019-02-28T02:24:12.395Z,59.59
2019-02-28T02:26:42.346Z,59.15
2019-02-28T02:29:07.949Z,59.59
2019-02-28T02:31:34.587Z,58.94
2019-02-28T02:34:01.428Z,58.94
2019-02-28T02:36:28.168Z,59.04
2019-02-28T02:38:55.225Z,59.07
2019-02-28T02:41:21.870Z,59.14
2019-02-28T02:43:48.526Z,58.95
2019-02-28T02:46:19.478Z,58.50
2019-02-28T02:49:39.962Z,58.56
2019-02-28T02:52:06.603Z,58.14
2019-02-28T02:54:33.290Z,58.73
2019-02-28T02:56:59.911Z,58.05
2019-02-28T02:59:26.483Z,57.94
2019-02-28T03:01:56.210Z,57.93
2019-02-28T03:04:23.197Z,57.97
2019-02-28T03:06:50.175Z,57.62
2019-02-28T03:09:16.777Z,57.57
2019-02-28T03:11:43.331Z,57.50
2019-02-28T03:14:09.972Z,57.17
2019-02-28T03:16:36.731Z,57.22
2019-02-28T03:19:03.612Z,56.84
2019-02-28T03:21:30.786Z,57.08
2019-02-28T03:23:57.473Z,57.33
2019-02-28T03:26:24.073Z,57.43
2019-02-28T03:28:50.681Z,57.29
2019-02-28T03:32:13.679Z,57.22
2019-02-28T03:34:40.455Z,56.82
2019-02-28T03:37:07.141Z,56.54
2019-02-28T03:39:33.881Z,56.52
2019-02-28T03:42:01.034Z,56.24
2019-02-28T03:44:27.652Z,56.28
2019-02-28T03:46:54.615Z,56.28
2019-02-28T03:49:21.285Z,55.95
2019-02-28T03:51:47.883Z,55.70
2019-02-28T03:54:14.514Z,55.91
2019-02-28T03:56:41.126Z,55.46
2019-02-28T03:59:07.910Z,54.92
2019-02-28T04:01:34.528Z,54.48
2019-02-28T04:04:58.774Z,54.32
2019-02-28T04:07:25.684Z,54.05
2019-02-28T04:09:52.443Z,53.84
2019-02-28T04:12:19.210Z,54.23
2019-02-28T04:14:45.893Z,53.92
2019-02-28T04:17:13.804Z,53.91
2019-02-28T04:19:40.730Z,54.34
2019-02-28T04:22:07.284Z,54.06
2019-02-28T04:24:33.915Z,54.05
2019-02-28T04:27:06.530Z,54.24
2019-02-28T04:29:31.145Z,54.11
2019-02-28T04:31:58.158Z,54.09
2019-02-28T04:34:24.921Z,54.28
2019-02-28T04:36:51.527Z,54.22
2019-02-28T04:40:15.691Z,53.96
2019-02-28T04:42:42.601Z,54.00
2019-02-28T04:45:13.081Z,54.42
2019-02-28T04:47:40.537Z,54.45
2019-02-28T04:51:24.699Z,54.73
2019-02-28T04:53:53.006Z,54.56
2019-02-28T04:56:19.903Z,54.96
2019-02-28T04:58:46.499Z,55.08
2019-02-28T05:01:13.507Z,55.73
2019-02-28T05:03:40.441Z,56.53
2019-02-28T05:06:07.223Z,56.49
2019-02-28T05:08:38.588Z,56.87
2019-02-28T05:11:03.814Z,57.36
2019-02-28T05:13:31.641Z,57.33
2019-02-28T05:15:58.213Z,57.32
2019-02-28T05:18:27.622Z,57.49
2019-02-28T05:20:53.660Z,60.27
2019-02-28T05:23:20.238Z,60.35
2019-02-28T05:25:49.088Z,60.32
2019-02-28T05:28:15.375Z,59.91
2019-02-28T05:30:41.961Z,60.36
2019-02-28T05:33:08.553Z,60.10
2019-02-28T05:35:57.174Z,60.31
2019-02-28T05:38:23.740Z,60.21
2019-02-28T05:40:50.544Z,59.65
2019-02-28T05:43:17.208Z,59.53
2019-02-28T05:45:48.714Z,59.50
2019-02-28T05:48:12.429Z,59.76
2019-02-28T05:50:39.738Z,59.78
2019-02-28T05:53:09.331Z,59.67
2019-02-28T05:55:35.291Z,60.14
2019-02-28T05:58:02.116Z,59.43
2019-02-28T06:00:28.967Z,59.66
2019-02-28T06:02:58.065Z,59.36
2019-02-28T06:05:24.166Z,59.38
2019-02-28T06:07:51.003Z,59.47
2019-02-28T06:10:23.349Z,59.19
2019-02-28T06:12:46.460Z,59.51
2019-02-28T06:15:15.252Z,58.84
2019-02-28T06:18:41.639Z,58.08
2019-02-28T06:21:10.129Z,58.47
2019-02-28T06:23:36.894Z,57.67
2019-02-28T06:26:03.952Z,58.33
2019-02-28T06:28:31.133Z,57.65
2019-02-28T06:31:00.471Z,57.02
2019-02-28T06:33:27.339Z,56.98
2019-02-28T06:35:54.551Z,56.23
2019-02-28T06:38:21.460Z,56.03
2019-02-28T06:40:48.062Z,55.83
2019-02-28T06:43:14.698Z,54.88
2019-02-28T06:45:41.387Z,54.64
2019-02-28T06:48:08.260Z,54.53
2019-02-28T06:50:34.978Z,54.12
2019-02-28T06:53:01.660Z,53.59
2019-02-28T06:55:28.302Z,53.38
2019-02-28T06:57:55.080Z,52.56
2019-02-28T07:00:22.054Z,52.05
2019-02-28T07:02:50.160Z,52.36
2019-02-28T07:05:17.342Z,52.29
2019-02-28T07:07:45.824Z,52.05
2019-02-28T07:10:16.313Z,52.22
2019-02-28T07:37:55.499Z,49.64
2019-02-28T07:40:22.254Z,49.60
2019-02-28T07:42:49.144Z,50.18
2019-02-28T07:45:16.189Z,50.10
2019-02-28T07:47:43.102Z,50.21
2019-02-28T07:50:12.731Z,50.17
2019-02-28T07:52:39.588Z,50.31
2019-02-28T07:55:11.465Z,50.08
2019-02-28T07:57:38.171Z,49.43
2019-02-28T08:00:17.139Z,49.77
2019-02-28T08:02:40.158Z,50.09
2019-02-28T08:05:11.248Z,49.18
2019-02-28T08:07:39.259Z,49.60
2019-02-28T08:10:12.772Z,49.28
2019-02-28T08:12:40.083Z,49.25
2019-02-28T08:15:13.695Z,48.70
2019-02-28T08:17:43.635Z,49.08
2019-02-28T08:20:11.006Z,49.36
2019-02-28T08:22:37.623Z,48.97
2019-02-28T08:25:09.942Z,49.33
2019-02-28T08:27:36.590Z,49.28
2019-02-28T08:30:08.947Z,48.84
2019-02-28T08:32:35.689Z,48.90
2019-02-28T08:35:06.994Z,49.00
2019-02-28T08:37:33.675Z,49.13
2019-02-28T08:40:00.355Z,49.52
2019-02-28T08:42:27.046Z,49.36
2019-02-28T08:44:58.123Z,49.52
2019-02-28T08:47:22.281Z,49.26
2019-02-28T08:49:48.927Z,49.48
2019-02-28T09:10:12.742Z,47.21
2019-02-28T09:12:40.217Z,48.02
2019-02-28T09:15:12.269Z,48.74
2019-02-28T09:17:39.058Z,47.88
2019-02-28T09:20:10.506Z,47.78
2019-02-28T09:22:38.147Z,48.14
2019-02-28T09:25:10.033Z,48.27
2019-02-28T09:27:38.906Z,48.34
2019-02-28T09:30:11.041Z,48.19
2019-02-28T09:32:37.961Z,48.59
2019-02-28T09:35:12.288Z,48.93
2019-02-28T09:37:35.166Z,48.32
2019-02-28T09:40:02.022Z,48.45
2019-02-28T09:42:28.849Z,48.45
2019-02-28T09:44:55.632Z,49.08
2019-02-28T09:47:26.315Z,48.85
2019-02-28T09:49:51.727Z,48.85
2019-02-28T09:52:18.330Z,48.87
2019-02-28T09:54:45.087Z,49.18
2019-02-28T09:57:11.803Z,48.60
2019-02-28T09:59:38.674Z,48.46
2019-02-28T10:02:09.390Z,48.57
2019-02-28T10:04:36.964Z,48.51
2019-02-28T10:07:03.829Z,47.92
2019-02-28T10:09:30.713Z,48.32
2019-02-28T10:11:57.402Z,47.93
2019-02-28T10:14:25.673Z,47.89
2019-02-28T10:16:53.378Z,48.05
2019-02-28T10:19:20.121Z,47.50
2019-02-28T10:21:51.894Z,47.60
2019-02-28T10:24:15.223Z,47.26
2019-02-28T10:26:41.832Z,47.24
2019-02-28T10:29:09.552Z,47.60
2019-02-28T10:31:38.444Z,47.48
2019-02-28T10:34:06.977Z,47.29
2019-02-28T10:36:33.751Z,47.77
2019-02-28T10:39:00.483Z,47.59
2019-02-28T10:41:28.002Z,47.92
2019-02-28T10:43:56.067Z,47.45
2019-02-28T10:46:22.765Z,47.23
2019-02-28T10:48:51.054Z,47.47
2019-02-28T10:51:18.040Z,47.34
2019-02-28T10:53:44.698Z,46.72
2019-02-28T10:56:12.057Z,46.61
2019-02-28T10:58:38.682Z,46.39
2019-02-28T11:01:08.942Z,45.07
2019-02-28T11:03:36.167Z,44.51
2019-02-28T11:06:02.974Z,44.61
2019-02-28T11:08:29.625Z,43.66
2019-02-28T11:10:57.603Z,43.51
2019-02-28T11:13:24.483Z,44.23
2019-02-28T11:27:11.308Z,42.76
2019-02-28T11:29:38.167Z,43.63
2019-02-28T11:32:04.939Z,44.20
2019-02-28T11:34:31.777Z,44.10
2019-02-28T11:36:58.594Z,43.77
2019-02-28T11:39:27.527Z,44.09
2019-02-28T11:41:54.180Z,44.57
2019-02-28T11:44:22.426Z,44.28
2019-02-28T11:46:49.096Z,43.99
2019-02-28T11:49:15.862Z,44.17
2019-02-28T11:51:42.627Z,44.96
2019-02-28T11:54:12.275Z,44.46
2019-02-28T11:56:38.267Z,45.13
2019-02-28T11:59:04.998Z,44.62
2019-02-28T12:01:31.925Z,45.26
2019-02-28T12:03:58.682Z,45.39
2019-02-28T12:06:25.762Z,45.61
2019-02-28T12:08:53.556Z,45.24
2019-02-28T12:11:20.314Z,45.14
2019-02-28T12:13:47.058Z,45.16
2019-02-28T12:16:16.226Z,44.63
2019-02-28T12:18:42.329Z,44.10
2019-02-28T12:21:09.080Z,44.29
2019-02-28T12:23:35.716Z,43.99
2019-02-28T12:26:02.619Z,44.22
2019-02-28T12:28:29.452Z,43.40
2019-02-28T12:30:57.272Z,43.50
2019-02-28T12:33:24.729Z,43.93
2019-02-28T12:35:51.537Z,43.43
2019-02-28T12:38:18.369Z,43.15
2019-02-28T12:40:45.738Z,43.50
2019-02-28T12:43:14.032Z,43.98
2019-02-28T12:45:46.982Z,43.83
2019-02-28T12:48:13.908Z,43.86
2019-02-28T12:50:41.662Z,43.63
2019-02-28T12:53:08.462Z,43.37
2019-02-28T12:55:35.476Z,43.19
2019-02-28T12:58:04.082Z,42.83
2019-02-28T13:00:36.448Z,43.06
2019-02-28T13:03:03.590Z,43.20
2019-02-28T13:05:31.257Z,43.40
2019-02-28T13:07:58.283Z,43.56
2019-02-28T13:10:27.992Z,43.61
2019-02-28T13:13:05.325Z,43.86
2019-02-28T13:15:23.740Z,43.34
2019-02-28T13:17:50.725Z,43.16
2019-02-28T13:20:22.592Z,43.17
2019-02-28T13:22:49.329Z,42.82
2019-02-28T13:25:19.422Z,43.03
2019-02-28T13:27:46.156Z,43.05
2019-02-28T13:30:18.227Z,43.08
2019-02-28T13:32:45.246Z,43.82
2019-02-28T13:35:17.004Z,44.26
2019-02-28T13:37:44.810Z,43.74
2019-02-28T13:40:14.269Z,43.82
2019-02-28T13:42:42.318Z,44.20
2019-02-28T13:45:22.184Z,44.10
2019-02-28T13:47:46.473Z,44.02
2019-02-28T13:50:18.037Z,44.24
2019-02-28T13:52:44.863Z,44.45
2019-02-28T13:55:14.343Z,44.88
2019-02-28T13:57:43.713Z,44.72
2019-02-28T14:00:18.426Z,44.33
2019-02-28T14:02:45.549Z,45.34
2019-02-28T14:05:13.432Z,45.28
2019-02-28T14:07:40.379Z,45.25
2019-02-28T14:10:11.711Z,44.94
2019-02-28T14:12:38.480Z,44.98
2019-02-28T14:15:10.282Z,45.58
2019-02-28T14:17:37.077Z,45.43
2019-02-28T14:20:08.845Z,45.12
2019-02-28T14:22:35.633Z,45.52
2019-02-28T14:25:06.148Z,45.43
2019-02-28T14:27:31.943Z,45.98
2019-02-28T14:29:58.696Z,46.40
2019-02-28T14:32:25.232Z,46.42
2019-02-28T14:34:51.987Z,46.24
2019-02-28T14:37:19.576Z,46.31
2019-02-28T14:39:47.301Z,46.50
2019-02-28T14:42:14.020Z,46.10
2019-02-28T14:44:40.621Z,46.40
2019-02-28T14:47:07.379Z,46.64
2019-02-28T14:49:34.181Z,46.37
2019-02-28T14:52:03.623Z,46.20
2019-02-28T14:54:29.566Z,46.62
2019-02-28T14:56:56.181Z,46.48
2019-02-28T14:59:22.944Z,46.70
2019-02-28T15:01:53.057Z,46.91
2019-02-28T15:04:18.251Z,48.11
2019-02-28T15:06:45.046Z,47.19
2019-02-28T15:09:14.788Z,47.09
2019-02-28T15:11:43.621Z,47.07
2019-02-28T15:14:10.931Z,46.85
2019-02-28T15:16:37.735Z,47.22
2019-02-28T15:19:05.827Z,46.36
2019-02-28T15:21:33.086Z,46.52
2019-02-28T15:23:59.666Z,46.53
2019-02-28T15:26:26.638Z,45.94
2019-02-28T15:28:55.125Z,46.23
2019-02-28T15:31:21.802Z,46.29
2019-02-28T15:33:48.550Z,46.37
2019-02-28T15:36:15.211Z,46.87
2019-02-28T15:38:44.744Z,46.82
2019-02-28T15:41:14.120Z,47.04
2019-02-28T15:43:47.042Z,46.98
2019-02-28T15:46:13.877Z,47.01
2019-02-28T15:48:40.526Z,47.46
2019-02-28T15:51:07.454Z,46.81
2019-02-28T15:53:34.222Z,46.58
2019-02-28T15:56:01.184Z,46.59
2019-02-28T15:58:27.806Z,47.05
2019-02-28T16:00:56.582Z,46.54
2019-02-28T16:03:23.252Z,46.78
2019-02-28T16:05:50.102Z,47.42
2019-02-28T16:08:16.828Z,47.63
2019-02-28T16:10:52.850Z,47.73
2019-02-28T16:13:12.343Z,47.92
2019-02-28T16:15:43.287Z,48.84
2019-02-28T16:18:12.066Z,48.57
2019-02-28T16:20:38.362Z,48.63
2019-02-28T16:23:08.636Z,48.44
2019-02-28T16:25:37.476Z,48.92
2019-02-28T16:28:07.721Z,48.96
2019-02-28T16:30:37.898Z,49.21
2019-02-28T16:33:04.894Z,49.79
2019-02-28T16:35:31.484Z,50.07
2019-02-28T16:37:58.291Z,50.48
2019-02-28T16:40:30.126Z,50.44
2019-02-28T16:42:56.996Z,50.39
2019-02-28T16:45:29.717Z,50.48
2019-02-28T16:47:59.543Z,50.70
2019-02-28T16:50:26.906Z,51.02
2019-02-28T16:52:53.507Z,51.24
2019-02-28T16:55:20.203Z,50.86
2019-02-28T16:57:47.844Z,50.39
2019-02-28T17:00:16.599Z,50.31
2019-02-28T17:02:43.509Z,51.00
2019-02-28T17:05:11.120Z,50.61
2019-02-28T17:07:40.505Z,50.29
2019-02-28T17:10:11.801Z,50.59
2019-02-28T17:12:40.741Z,50.53
2019-02-28T17:15:12.766Z,51.12
2019-02-28T17:17:43.497Z,51.48
2019-02-28T17:20:10.490Z,51.75
2019-02-28T17:22:37.417Z,51.62
2019-02-28T17:25:06.048Z,51.75
2019-02-28T17:27:34.829Z,52.01
2019-02-28T17:30:03.554Z,51.92
2019-02-28T17:32:32.170Z,52.06
2019-02-28T17:34:59.646Z,52.19
2019-02-28T17:37:27.063Z,52.50
2019-02-28T17:39:53.754Z,52.90
2019-02-28T17:42:21.529Z,52.78
2019-02-28T17:44:53.819Z,52.02
2019-02-28T17:47:26.185Z,52.38
2019-02-28T17:50:00.017Z,52.33
2019-02-28T17:52:34.463Z,52.45
2019-02-28T17:55:07.158Z,52.19
2019-02-28T17:57:41.612Z,52.58
2019-02-28T18:00:12.965Z,52.39
2019-02-28T18:02:47.762Z,52.51
2019-02-28T18:05:17.332Z,52.81
2019-02-28T18:07:49.788Z,53.23
2019-02-28T18:10:20.989Z,53.63
2019-02-28T18:12:52.755Z,53.67
2019-02-28T18:15:25.055Z,53.92
2019-02-28T18:17:57.542Z,54.63
2019-02-28T18:20:32.154Z,54.61
2019-02-28T18:23:02.516Z,54.20
2019-02-28T18:25:33.125Z,54.04
2019-02-28T18:28:03.668Z,54.60
2019-02-28T18:30:36.146Z,54.98
2019-02-28T18:33:03.394Z,55.45
2019-02-28T18:35:32.595Z,55.79
2019-02-28T18:38:02.466Z,55.98
2019-02-28T18:40:28.731Z,55.62
2019-02-28T18:42:57.588Z,55.98
2019-02-28T18:45:24.468Z,56.21
2019-02-28T18:47:51.263Z,56.00
2019-02-28T18:50:18.011Z,56.21
2019-02-28T18:52:44.935Z,56.79
2019-02-28T18:55:12.423Z,56.53
2019-02-28T18:57:39.242Z,56.86
2019-02-28T19:01:02.433Z,56.65
2019-02-28T19:03:29.367Z,57.03
2019-02-28T19:05:56.179Z,56.43
2019-02-28T19:08:22.855Z,56.67
2019-02-28T19:10:54.959Z,57.60
2019-02-28T19:13:22.120Z,56.47
2019-02-28T19:15:48.933Z,56.38
2019-02-28T19:18:16.927Z,56.61
2019-02-28T19:20:43.782Z,56.65
2019-02-28T19:23:10.524Z,56.69
2019-02-28T19:25:37.157Z,56.66
2019-02-28T19:28:04.024Z,56.14
2019-02-28T19:30:30.743Z,55.71
2019-02-28T19:32:57.489Z,51.66
2019-02-28T19:35:24.202Z,49.71
2019-02-28T19:38:47.477Z,49.70
2019-02-28T19:41:14.217Z,48.83
2019-02-28T19:43:41.114Z,47.55
2019-02-28T19:46:07.935Z,46.99
2019-02-28T19:48:35.768Z,46.91
2019-02-28T19:51:03.062Z,47.15
2019-02-28T19:53:29.711Z,47.14
2019-02-28T19:55:56.859Z,46.93
2019-02-28T19:58:23.549Z,47.28
2019-02-28T20:00:51.964Z,47.10
2019-02-28T20:03:19.164Z,48.41
2019-02-28T20:05:46.085Z,47.77
2019-02-28T20:08:12.797Z,47.80
2019-02-28T20:10:39.391Z,46.90
2019-02-28T20:13:06.410Z,46.54
2019-02-28T20:15:36.478Z,46.91
2019-02-28T20:18:59.527Z,46.81
2019-02-28T20:21:27.436Z,46.91
2019-02-28T20:23:54.472Z,47.30
2019-02-28T20:26:21.486Z,46.79
2019-02-28T20:28:48.397Z,46.74
2019-02-28T20:31:15.688Z,47.71
2019-02-28T20:33:42.552Z,47.07
2019-02-28T20:36:09.656Z,46.53
2019-02-28T20:38:37.255Z,46.80
2019-02-28T20:41:04.282Z,47.00
2019-02-28T20:43:31.008Z,46.77
2019-02-28T20:45:58.148Z,47.22
2019-02-28T20:49:40.271Z,47.09
2019-02-28T20:52:07.254Z,46.96
2019-02-28T20:54:34.509Z,47.17
2019-02-28T20:57:01.302Z,47.19
2019-02-28T20:59:31.061Z,46.96
2019-02-28T21:01:58.021Z,47.83
2019-02-28T21:04:24.904Z,46.46
2019-02-28T21:06:53.157Z,46.41
2019-02-28T21:09:23.736Z,46.59
2019-02-28T21:11:50.792Z,47.19
2019-02-28T21:14:18.383Z,47.64
2019-02-28T21:16:46.759Z,46.88
2019-02-28T21:19:13.530Z,47.83
2019-02-28T21:21:40.258Z,47.53
2019-02-28T21:24:07.056Z,48.05
2019-02-28T21:26:33.987Z,48.82
2019-02-28T21:29:01.263Z,47.27
2019-02-28T21:31:28.154Z,47.91
2019-02-28T21:33:54.909Z,48.39
2019-02-28T21:36:21.991Z,48.05
2019-02-28T21:38:49.063Z,47.32
2019-02-28T21:41:16.717Z,47.22
2019-02-28T21:43:43.895Z,46.85
2019-02-28T21:46:10.741Z,47.56
2019-02-28T21:48:37.440Z,48.32
2019-02-28T21:51:04.394Z,47.70
2019-02-28T21:53:31.874Z,48.12
2019-02-28T21:55:59.221Z,48.13
2019-02-28T21:58:26.612Z,47.97
2019-02-28T22:00:54.164Z,47.99
2019-02-28T22:03:21.149Z,48.02
2019-02-28T22:05:49.020Z,48.44
2019-02-28T22:08:18.736Z,48.69
2019-02-28T22:10:45.524Z,49.18
2019-02-28T22:13:12.127Z,49.21
2019-02-28T22:15:38.835Z,49.52
2019-02-28T22:18:05.577Z,49.62
2019-02-28T22:20:32.758Z,50.65
2019-02-28T22:23:56.102Z,50.64
2019-02-28T22:26:22.907Z,50.57
2019-02-28T22:28:49.532Z,50.98
2019-02-28T22:31:25.583Z,51.18
2019-02-28T22:33:54.170Z,51.41
2019-02-28T22:36:22.807Z,51.33
2019-02-28T22:38:49.484Z,52.04
2019-02-28T22:41:16.284Z,52.44
2019-02-28T22:43:43.007Z,53.36
2019-02-28T22:46:09.807Z,53.28
2019-02-28T22:48:36.450Z,53.98
2019-02-28T22:51:03.591Z,54.75
2019-02-28T22:53:33.288Z,55.11
2019-02-28T22:56:00.032Z,56.10
2019-02-28T22:58:26.813Z,56.66
2019-02-28T23:01:01.036Z,57.52
2019-02-28T23:03:32.254Z,57.78
2019-02-28T23:05:59.333Z,58.33
2019-02-28T23:08:26.139Z,59.01
2019-02-28T23:10:53.083Z,59.76
2019-02-28T23:13:19.926Z,61.60
2019-02-28T23:15:46.555Z,61.46
2019-02-28T23:18:13.223Z,61.65
2019-02-28T23:20:39.838Z,62.25
2019-02-28T23:23:06.649Z,61.96
2019-02-28T23:25:33.223Z,62.67
2019-02-28T23:28:05.622Z,62.82
2019-02-28T23:30:38.061Z,62.97
2019-02-28T23:33:04.973Z,63.79
2019-02-28T23:35:33.882Z,63.50
2019-02-28T23:38:00.980Z,63.44
2019-02-28T23:40:27.849Z,63.63
2019-02-28T23:42:54.625Z,64.17
2019-02-28T23:45:21.400Z,64.26
2019-02-28T23:47:47.965Z,63.92
2019-02-28T23:50:14.675Z,63.78
2019-02-28T23:52:41.385Z,63.77
2019-02-28T23:55:08.750Z,64.55
2019-02-28T23:57:35.352Z,64.74
